Time;durP1;ratioP1;P1;durP2;ratioP2;P2;SDS_P1;SDS_P2;PMS_P1;PMS_P2;Temp;Humidity;BMP_temperature;BMP_pressure;BME280_temperature;BME280_humidity;BME280_pressure;Samples;Min_cycle;Max_cycle;Signal;HPM_P1;HPM_P2
2023/12/21 00:01:33;;;;;;;5.53;1.77;;;5.20;99.90;;;;;;5007444;28;20041;-46
2023/12/21 00:04:02;;;;;;;3.03;1.75;;;5.20;99.90;;;;;;5007007;28;20042;-55
2023/12/21 00:06:30;;;;;;;5.13;1.90;;;5.30;99.90;;;;;;5011014;28;20506;-53
2023/12/21 00:08:57;;;;;;;5.47;1.83;;;5.30;99.90;;;;;;5009865;28;20470;-53
2023/12/21 00:11:24;;;;;;;6.28;1.90;;;5.30;99.90;;;;;;5011351;28;20038;-54
2023/12/21 00:13:51;;;;;;;6.28;1.88;;;5.20;99.90;;;;;;5012933;28;20046;-51
2023/12/21 00:16:18;;;;;;;5.22;1.80;;;5.30;99.90;;;;;;5014663;28;20030;-55
2023/12/21 00:18:46;;;;;;;4.68;1.80;;;5.30;99.90;;;;;;5009283;28;20112;-54
2023/12/21 00:21:13;;;;;;;3.90;1.90;;;5.20;99.90;;;;;;5011165;28;20054;-50
2023/12/21 00:23:40;;;;;;;4.15;1.70;;;5.30;99.90;;;;;;5010759;28;20041;-52
2023/12/21 00:26:07;;;;;;;3.78;1.90;;;5.20;99.90;;;;;;5009208;28;20042;-50
2023/12/21 00:28:34;;;;;;;3.55;1.50;;;5.20;99.90;;;;;;5010701;28;20060;-54
2023/12/21 00:31:01;;;;;;;4.30;2.13;;;5.10;99.90;;;;;;5011256;28;20088;-51
2023/12/21 00:33:29;;;;;;;6.18;2.05;;;5.10;99.90;;;;;;5010017;28;20070;-54
2023/12/21 00:35:56;;;;;;;4.18;1.40;;;5.10;99.90;;;;;;5008209;28;20121;-50
2023/12/21 00:38:23;;;;;;;6.43;1.70;;;5.00;99.90;;;;;;5011695;28;20507;-47
2023/12/21 00:40:52;;;;;;;6.05;1.70;;;5.00;99.90;;;;;;5014070;28;20063;-52
2023/12/21 00:43:19;;;;;;;2.65;1.50;;;5.00;99.90;;;;;;5012875;28;20148;-48
2023/12/21 00:45:47;;;;;;;4.55;1.70;;;5.10;99.90;;;;;;5008935;28;20131;-55
2023/12/21 00:48:14;;;;;;;2.45;1.30;;;5.10;99.90;;;;;;5007966;28;20057;-55
2023/12/21 00:50:42;;;;;;;3.65;1.60;;;5.10;99.90;;;;;;5012186;28;20418;-54
2023/12/21 00:53:09;;;;;;;4.13;1.70;;;5.10;99.90;;;;;;5010273;28;20085;-52
2023/12/21 00:55:36;;;;;;;5.68;1.40;;;5.10;99.90;;;;;;5009742;28;20577;-51
2023/12/21 00:58:03;;;;;;;5.45;1.65;;;5.10;99.90;;;;;;5008041;28;20279;-49
2023/12/21 01:00:31;;;;;;;3.95;1.75;;;5.10;99.90;;;;;;5011983;28;20079;-55
2023/12/21 01:02:58;;;;;;;3.15;1.40;;;5.00;99.90;;;;;;5008465;28;20045;-52
2023/12/21 01:05:26;;;;;;;6.95;1.80;;;5.00;99.90;;;;;;5015199;28;20117;-49
2023/12/21 01:07:53;;;;;;;3.47;1.52;;;5.00;99.90;;;;;;5014874;28;20388;-51
2023/12/21 01:10:20;;;;;;;3.75;1.88;;;5.00;99.90;;;;;;5016099;28;20056;-48
2023/12/21 01:12:47;;;;;;;5.13;1.60;;;5.00;99.90;;;;;;5014372;28;20049;-51
2023/12/21 01:15:14;;;;;;;3.20;1.60;;;5.00;99.90;;;;;;5015605;28;20141;-53
2023/12/21 01:17:41;;;;;;;3.33;1.50;;;5.10;99.90;;;;;;5016003;28;20099;-54
2023/12/21 01:20:09;;;;;;;2.47;1.40;;;5.10;99.90;;;;;;5008792;28;20042;-54
2023/12/21 01:22:36;;;;;;;4.35;1.48;;;5.10;99.90;;;;;;5012834;28;20052;-54
2023/12/21 01:25:04;;;;;;;2.40;1.25;;;5.10;99.90;;;;;;5009326;28;20050;-51
2023/12/21 01:27:31;;;;;;;5.63;2.05;;;5.10;99.90;;;;;;5011947;28;20061;-49
2023/12/21 01:29:59;;;;;;;2.92;1.40;;;5.10;99.90;;;;;;5012010;28;20038;-49
2023/12/21 01:32:26;;;;;;;3.25;1.23;;;5.10;99.90;;;;;;5016212;28;20073;-50
2023/12/21 01:34:53;;;;;;;2.92;1.38;;;5.10;99.90;;;;;;5012086;28;20104;-50
2023/12/21 01:37:24;;;;;;;3.53;1.50;;;5.10;99.90;;;;;;5014336;28;20049;-52
2023/12/21 01:39:51;;;;;;;4.95;1.55;;;5.10;99.90;;;;;;5013776;28;22197;-47
2023/12/21 01:42:19;;;;;;;3.40;1.30;;;5.10;99.90;;;;;;5011028;28;20475;-48
2023/12/21 01:44:46;;;;;;;4.35;1.50;;;5.10;99.90;;;;;;5009365;28;20047;-52
2023/12/21 01:47:13;;;;;;;4.50;1.45;;;5.00;99.90;;;;;;5006637;28;20328;-47
2023/12/21 01:49:41;;;;;;;5.45;1.55;;;5.00;99.90;;;;;;5009013;28;20054;-53
2023/12/21 01:52:09;;;;;;;3.28;1.52;;;5.00;99.90;;;;;;5014241;28;20164;-49
2023/12/21 01:54:37;;;;;;;4.68;1.73;;;5.00;99.90;;;;;;5007234;28;20052;-48
2023/12/21 01:57:04;;;;;;;3.75;1.58;;;5.00;99.90;;;;;;5006977;28;20054;-51
2023/12/21 01:59:31;;;;;;;2.97;1.50;;;5.10;99.90;;;;;;5013184;28;21151;-52
2023/12/21 02:02:01;;;;;;;3.45;1.70;;;5.00;99.90;;;;;;5014263;28;20042;-47
2023/12/21 02:04:28;;;;;;;3.88;1.60;;;5.10;99.90;;;;;;5018339;28;20148;-49
2023/12/21 02:06:56;;;;;;;2.35;1.42;;;5.10;99.90;;;;;;5012238;28;20046;-47
2023/12/21 02:09:23;;;;;;;3.50;1.70;;;5.10;99.90;;;;;;5016417;28;20064;-55
2023/12/21 02:11:50;;;;;;;3.45;1.33;;;5.20;99.90;;;;;;5013795;28;20045;-54
2023/12/21 02:14:17;;;;;;;3.95;1.50;;;5.20;99.90;;;;;;5012505;28;20506;-50
2023/12/21 02:16:56;;;;;;;3.67;1.27;;;5.20;99.90;;;;;;4999087;28;20052;-53
2023/12/21 02:19:23;;;;;;;2.88;1.40;;;5.20;99.90;;;;;;5015118;28;20046;-53
2023/12/21 02:21:54;;;;;;;3.30;1.27;;;5.20;99.90;;;;;;5011003;28;20049;-47
2023/12/21 02:24:21;;;;;;;4.50;1.50;;;5.30;99.90;;;;;;5013614;28;20057;-56
2023/12/21 02:26:48;;;;;;;2.63;1.20;;;5.30;99.90;;;;;;5018556;28;20399;-55
2023/12/21 02:29:15;;;;;;;2.50;1.20;;;5.30;99.90;;;;;;5013128;28;20050;-52
2023/12/21 02:31:42;;;;;;;1.85;1.00;;;5.30;99.90;;;;;;5014673;28;20041;-54
2023/12/21 02:34:10;;;;;;;3.60;1.25;;;5.40;99.90;;;;;;5002771;28;20133;-52
2023/12/21 02:36:37;;;;;;;3.42;1.38;;;5.40;99.90;;;;;;5014214;28;20144;-52
2023/12/21 02:39:04;;;;;;;3.72;1.40;;;5.40;99.90;;;;;;5008348;28;20156;-51
2023/12/21 02:41:31;;;;;;;2.25;1.08;;;5.40;99.90;;;;;;5015002;28;20121;-54
2023/12/21 02:43:58;;;;;;;2.90;1.10;;;5.40;99.90;;;;;;5013485;28;20057;-46
2023/12/21 02:46:27;;;;;;;2.92;1.15;;;5.40;99.90;;;;;;5012436;28;20044;-48
2023/12/21 02:48:54;;;;;;;2.60;1.10;;;5.50;99.90;;;;;;5012289;28;20269;-48
2023/12/21 02:51:21;;;;;;;3.95;1.38;;;5.50;99.90;;;;;;5011929;28;20041;-52
2023/12/21 02:53:48;;;;;;;2.55;1.20;;;5.50;99.90;;;;;;5015455;28;20045;-48
2023/12/21 02:56:15;;;;;;;2.28;1.20;;;5.50;99.90;;;;;;5008497;28;20045;-57
2023/12/21 02:58:42;;;;;;;5.60;1.45;;;5.50;99.90;;;;;;5013936;28;20055;-52
2023/12/21 03:01:09;;;;;;;3.55;1.10;;;5.50;99.90;;;;;;5009764;28;20093;-51
2023/12/21 03:03:36;;;;;;;1.85;1.17;;;5.50;99.90;;;;;;5010021;28;20108;-50
2023/12/21 03:06:04;;;;;;;3.40;1.00;;;5.50;99.90;;;;;;5012722;28;20064;-46
2023/12/21 03:08:31;;;;;;;3.45;1.30;;;5.50;99.90;;;;;;5040378;28;20052;-51
2023/12/21 03:11:02;;;;;;;1.30;0.90;;;5.40;99.90;;;;;;5013865;28;20121;-49
2023/12/21 03:13:29;;;;;;;2.03;1.25;;;5.40;99.90;;;;;;5010003;28;20060;-52
2023/12/21 03:15:56;;;;;;;2.90;1.23;;;5.30;99.90;;;;;;5002729;28;20325;-52
2023/12/21 03:18:23;;;;;;;2.38;1.10;;;5.30;99.90;;;;;;5035911;28;20067;-50
2023/12/21 03:20:50;;;;;;;3.70;1.27;;;5.30;99.90;;;;;;5009266;28;20046;-50
2023/12/21 03:23:17;;;;;;;1.98;1.08;;;5.30;99.90;;;;;;5008488;28;20041;-50
2023/12/21 03:25:44;;;;;;;1.38;0.88;;;5.30;99.90;;;;;;5011197;28;20403;-59
2023/12/21 03:28:14;;;;;;;1.70;1.08;;;5.30;99.90;;;;;;5010325;28;20041;-53
2023/12/21 03:30:41;;;;;;;1.92;1.10;;;5.30;99.90;;;;;;5013526;28;20047;-48
2023/12/21 03:33:09;;;;;;;2.20;0.90;;;5.30;99.90;;;;;;5009576;28;20049;-49
2023/12/21 03:35:36;;;;;;;2.70;1.08;;;5.30;99.90;;;;;;5013105;28;20454;-53
2023/12/21 03:38:03;;;;;;;3.28;1.20;;;5.30;99.90;;;;;;5009610;28;20121;-55
2023/12/21 03:40:30;;;;;;;2.92;1.05;;;5.30;99.90;;;;;;5008752;28;20515;-57
2023/12/21 03:42:57;;;;;;;2.45;1.10;;;5.30;99.90;;;;;;5006050;28;20049;-50
2023/12/21 03:45:24;;;;;;;4.10;1.10;;;5.40;99.90;;;;;;5016999;28;20565;-55
2023/12/21 03:47:51;;;;;;;1.58;1.00;;;5.30;99.90;;;;;;5011854;28;20096;-54
2023/12/21 03:50:18;;;;;;;1.35;0.90;;;5.20;99.90;;;;;;5012989;28;20268;-54
2023/12/21 03:52:45;;;;;;;2.95;0.90;;;5.20;99.90;;;;;;5013363;28;20053;-47
2023/12/21 03:55:13;;;;;;;2.22;1.20;;;5.30;99.90;;;;;;5008614;28;20042;-49
2023/12/21 03:57:40;;;;;;;3.40;1.10;;;5.30;99.90;;;;;;5013532;28;20049;-51
2023/12/21 04:00:08;;;;;;;3.92;1.05;;;5.30;99.90;;;;;;5005689;28;20049;-48
2023/12/21 04:02:36;;;;;;;1.38;0.98;;;5.30;99.90;;;;;;5015272;28;20487;-48
2023/12/21 04:05:04;;;;;;;2.00;1.00;;;5.40;99.90;;;;;;4993436;28;20104;-50
2023/12/21 04:07:31;;;;;;;2.40;0.98;;;5.30;99.90;;;;;;5013623;28;20132;-51
2023/12/21 04:09:59;;;;;;;2.42;1.00;;;5.30;99.90;;;;;;5011668;28;20096;-53
2023/12/21 04:12:26;;;;;;;1.65;1.00;;;5.30;99.90;;;;;;5011702;28;20056;-48
2023/12/21 04:14:53;;;;;;;4.72;1.10;;;5.30;99.90;;;;;;5008478;28;20653;-53
2023/12/21 04:17:20;;;;;;;2.00;1.00;;;5.30;99.90;;;;;;5012812;28;20064;-53
2023/12/21 04:19:47;;;;;;;1.30;0.90;;;5.30;99.90;;;;;;5009655;28;20041;-52
2023/12/21 04:22:14;;;;;;;1.02;0.90;;;5.30;99.90;;;;;;5011151;28;20646;-51
2023/12/21 04:24:41;;;;;;;3.10;1.10;;;5.30;99.90;;;;;;5010773;28;20458;-54
2023/12/21 04:27:08;;;;;;;1.00;0.80;;;5.30;99.90;;;;;;5013196;28;20038;-52
2023/12/21 04:29:37;;;;;;;1.05;0.95;;;5.40;99.90;;;;;;5014436;28;20403;-50
2023/12/21 04:32:06;;;;;;;2.70;0.90;;;5.40;99.90;;;;;;5011123;28;20688;-50
2023/12/21 04:34:33;;;;;;;2.35;0.90;;;5.40;99.90;;;;;;5012944;28;20063;-52
2023/12/21 04:37:00;;;;;;;0.90;0.80;;;5.40;99.90;;;;;;5006467;28;20050;-58
2023/12/21 04:39:27;;;;;;;1.75;1.02;;;5.40;99.90;;;;;;5010084;28;20034;-54
2023/12/21 04:41:54;;;;;;;2.50;0.80;;;5.40;99.90;;;;;;5008654;28;20399;-53
2023/12/21 04:44:21;;;;;;;1.15;0.82;;;5.30;99.90;;;;;;5012227;28;20041;-52
2023/12/21 04:46:49;;;;;;;1.55;1.00;;;5.40;99.90;;;;;;5009928;28;20045;-53
2023/12/21 04:49:19;;;;;;;1.35;0.80;;;5.40;99.90;;;;;;5011029;28;20149;-56
2023/12/21 04:51:46;;;;;;;0.93;0.80;;;5.40;99.90;;;;;;5010596;28;20065;-53
2023/12/21 04:54:13;;;;;;;1.83;1.00;;;5.30;99.90;;;;;;5010917;28;20125;-50
2023/12/21 04:56:41;;;;;;;1.35;0.80;;;5.30;99.90;;;;;;5011532;28;20107;-53
2023/12/21 04:59:09;;;;;;;1.33;0.88;;;5.40;99.90;;;;;;5009448;28;20442;-47
2023/12/21 05:01:36;;;;;;;1.42;0.80;;;5.40;99.90;;;;;;5013373;28;20053;-44
2023/12/21 05:04:06;;;;;;;1.52;0.90;;;5.30;99.90;;;;;;5006945;28;20333;-52
2023/12/21 05:06:33;;;;;;;2.17;0.93;;;5.30;99.90;;;;;;5007301;28;20567;-54
2023/12/21 05:09:00;;;;;;;1.48;0.90;;;5.40;99.90;;;;;;5008772;28;20038;-51
2023/12/21 05:11:27;;;;;;;1.38;0.80;;;5.40;99.90;;;;;;5010112;28;20455;-57
2023/12/21 05:13:55;;;;;;;3.70;0.85;;;5.40;99.90;;;;;;5034680;28;20491;-53
2023/12/21 05:16:22;;;;;;;2.25;1.33;;;5.50;99.90;;;;;;5009313;28;20033;-50
2023/12/21 05:18:50;;;;;;;1.45;0.85;;;5.50;99.90;;;;;;5010569;28;20140;-52
2023/12/21 05:21:17;;;;;;;1.63;1.05;;;5.50;99.90;;;;;;5006240;28;20098;-56
2023/12/21 05:23:44;;;;;;;0.60;0.60;;;5.50;99.90;;;;;;5005627;28;20153;-46
2023/12/21 05:26:13;;;;;;;1.42;0.80;;;5.60;99.90;;;;;;5004684;28;20060;-55
2023/12/21 05:28:42;;;;;;;1.95;0.93;;;5.60;99.90;;;;;;5012409;28;20038;-51
2023/12/21 05:31:11;;;;;;;1.95;1.02;;;5.60;99.90;;;;;;5005781;28;20132;-50
2023/12/21 05:33:39;;;;;;;4.13;0.85;;;5.60;99.90;;;;;;5007026;28;20045;-55
2023/12/21 05:36:07;;;;;;;1.73;0.93;;;5.60;99.90;;;;;;5008974;28;20097;-49
2023/12/21 05:38:36;;;;;;;1.27;0.80;;;5.60;99.90;;;;;;5013751;28;20125;-53
2023/12/21 05:41:04;;;;;;;0.88;0.73;;;5.60;99.90;;;;;;5009822;28;20507;-51
2023/12/21 05:43:31;;;;;;;1.30;0.85;;;5.60;99.90;;;;;;5009049;28;20426;-54
2023/12/21 05:45:58;;;;;;;1.08;0.70;;;5.60;99.90;;;;;;5007508;28;20133;-49
2023/12/21 05:48:25;;;;;;;1.48;0.90;;;5.60;99.90;;;;;;5009727;28;20104;-53
2023/12/21 05:50:53;;;;;;;1.20;0.70;;;5.60;99.90;;;;;;5010477;28;20049;-51
2023/12/21 05:53:20;;;;;;;1.40;0.90;;;5.60;99.90;;;;;;5012365;28;20041;-56
2023/12/21 05:55:47;;;;;;;1.10;0.73;;;5.70;99.90;;;;;;5012061;28;20146;-52
2023/12/21 05:58:14;;;;;;;2.38;1.00;;;5.70;99.90;;;;;;5007727;28;20046;-52
2023/12/21 06:00:41;;;;;;;2.78;0.90;;;5.70;99.90;;;;;;5005648;28;20053;-50
2023/12/21 06:03:08;;;;;;;1.10;0.77;;;5.70;99.90;;;;;;5004125;28;20129;-50
2023/12/21 06:05:35;;;;;;;2.05;0.80;;;5.70;99.90;;;;;;5014199;28;20050;-51
2023/12/21 06:08:02;;;;;;;2.50;1.13;;;5.70;99.90;;;;;;5012567;28;20509;-52
2023/12/21 06:10:29;;;;;;;2.15;1.02;;;5.70;99.90;;;;;;5016281;28;20060;-47
2023/12/21 06:12:57;;;;;;;1.45;0.90;;;5.80;99.90;;;;;;5013884;28;20308;-49
2023/12/21 06:15:24;;;;;;;2.28;0.73;;;5.80;99.90;;;;;;5016032;28;20292;-46
2023/12/21 06:17:51;;;;;;;1.52;0.90;;;5.80;99.90;;;;;;5014099;28;20076;-49
2023/12/21 06:20:18;;;;;;;1.05;0.80;;;5.90;99.90;;;;;;5015296;28;20128;-53
2023/12/21 06:22:45;;;;;;;1.17;0.80;;;5.90;99.90;;;;;;5013495;28;20042;-50
2023/12/21 06:25:12;;;;;;;1.73;0.82;;;5.90;99.90;;;;;;5011752;28;20042;-50
2023/12/21 06:27:39;;;;;;;1.73;1.00;;;5.90;99.90;;;;;;5017772;28;20049;-49
2023/12/21 06:30:07;;;;;;;1.60;0.90;;;5.90;99.90;;;;;;5037458;28;20042;-46
2023/12/21 06:32:34;;;;;;;1.63;0.88;;;5.90;99.90;;;;;;5012601;28;20038;-51
2023/12/21 06:35:01;;;;;;;0.93;0.75;;;6.00;99.90;;;;;;5020232;28;20044;-49
2023/12/21 06:37:29;;;;;;;0.95;0.70;;;6.00;99.90;;;;;;5014403;28;20050;-55
2023/12/21 06:39:57;;;;;;;1.17;0.60;;;6.10;99.90;;;;;;5008034;28;20391;-51
2023/12/21 06:42:24;;;;;;;1.08;0.77;;;6.10;99.90;;;;;;5010837;28;20104;-48
2023/12/21 06:44:51;;;;;;;1.80;0.70;;;6.10;99.90;;;;;;5011161;28;20057;-52
2023/12/21 06:47:18;;;;;;;0.95;0.70;;;6.10;99.90;;;;;;5010652;28;20122;-51
2023/12/21 06:49:45;;;;;;;0.85;0.80;;;6.10;99.90;;;;;;5013019;28;20105;-50
2023/12/21 06:52:12;;;;;;;1.77;0.82;;;6.20;99.90;;;;;;5015669;28;20410;-48
2023/12/21 06:54:40;;;;;;;1.15;0.80;;;6.20;99.90;;;;;;5009360;28;20545;-46
2023/12/21 06:57:07;;;;;;;0.93;0.70;;;6.20;99.90;;;;;;5013976;28;20086;-50
2023/12/21 06:59:34;;;;;;;0.88;0.80;;;6.20;99.90;;;;;;5014373;28;20064;-52
2023/12/21 07:02:01;;;;;;;0.93;0.70;;;6.20;99.90;;;;;;5011647;28;20046;-51
2023/12/21 07:04:29;;;;;;;0.90;0.80;;;6.20;99.90;;;;;;5012783;28;20506;-51
2023/12/21 07:06:58;;;;;;;1.23;0.70;;;6.20;99.90;;;;;;5013092;28;20042;-54
2023/12/21 07:09:25;;;;;;;1.02;0.70;;;6.20;99.90;;;;;;5015245;28;20042;-56
2023/12/21 07:11:53;;;;;;;2.15;0.80;;;6.30;99.90;;;;;;5010267;28;20690;-50
2023/12/21 07:14:20;;;;;;;1.33;0.80;;;6.30;99.90;;;;;;5014146;28;20116;-50
2023/12/21 07:16:47;;;;;;;0.77;0.70;;;6.30;99.90;;;;;;5011187;28;20120;-55
2023/12/21 07:19:15;;;;;;;2.17;0.70;;;6.30;99.90;;;;;;5015085;28;20056;-50
2023/12/21 07:21:42;;;;;;;2.78;0.70;;;6.30;99.90;;;;;;5016279;28;20073;-46
2023/12/21 07:24:09;;;;;;;1.05;0.75;;;6.30;99.90;;;;;;5015457;28;20045;-55
2023/12/21 07:26:36;;;;;;;0.73;0.70;;;6.30;99.90;;;;;;5014370;28;20521;-48
2023/12/21 07:29:04;;;;;;;0.90;0.70;;;6.30;99.90;;;;;;5013479;28;20117;-51
2023/12/21 07:31:31;;;;;;;2.08;0.68;;;6.30;99.90;;;;;;5011911;28;20400;-50
2023/12/21 07:33:59;;;;;;;1.60;1.00;;;6.30;99.90;;;;;;5008185;28;20045;-48
2023/12/21 07:36:26;;;;;;;0.70;0.70;;;6.30;99.90;;;;;;5013551;28;20046;-48
2023/12/21 07:38:53;;;;;;;0.70;0.70;;;6.30;99.90;;;;;;5010675;28;20046;-47
2023/12/21 07:41:21;;;;;;;1.10;0.60;;;6.30;99.90;;;;;;5006765;28;20398;-51
2023/12/21 07:43:48;;;;;;;4.07;1.55;;;6.30;99.90;;;;;;5003492;28;20057;-50
2023/12/21 07:46:15;;;;;;;0.75;0.63;;;6.30;99.90;;;;;;5008478;28;20038;-52
2023/12/21 07:48:42;;;;;;;1.33;0.77;;;6.30;99.90;;;;;;5013979;28;20045;-54
2023/12/21 07:51:10;;;;;;;2.40;0.93;;;6.20;99.90;;;;;;5012707;28;20073;-52
2023/12/21 07:53:38;;;;;;;1.92;0.70;;;6.20;99.90;;;;;;5010686;28;20267;-49
2023/12/21 07:56:05;;;;;;;1.38;0.70;;;6.10;99.90;;;;;;5009983;28;20607;-54
2023/12/21 07:58:33;;;;;;;1.63;0.85;;;6.10;99.90;;;;;;5013343;28;20046;-53
2023/12/21 08:01:00;;;;;;;1.83;0.80;;;6.10;99.90;;;;;;5010247;28;20049;-49
2023/12/21 08:03:27;;;;;;;1.70;0.70;;;6.10;99.90;;;;;;5010843;28;20042;-47
2023/12/21 08:05:55;;;;;;;2.92;0.80;;;6.10;99.90;;;;;;5010174;28;20045;-48
2023/12/21 08:08:22;;;;;;;1.95;0.90;;;6.10;99.90;;;;;;5011462;28;20531;-51
2023/12/21 08:10:49;;;;;;;0.95;0.60;;;6.20;99.90;;;;;;5013660;28;20530;-52
2023/12/21 08:13:16;;;;;;;3.10;1.05;;;6.10;99.90;;;;;;5011254;28;20168;-55
2023/12/21 08:15:43;;;;;;;1.27;0.80;;;6.10;99.90;;;;;;5011373;28;20065;-54
2023/12/21 08:18:13;;;;;;;2.08;0.75;;;6.00;99.90;;;;;;5009792;28;20079;-52
2023/12/21 08:20:47;;;;;;;1.95;0.70;;;6.00;99.90;;;;;;5012184;28;20048;-48
2023/12/21 08:23:15;;;;;;;0.63;0.50;;;6.00;99.90;;;;;;5009594;28;20026;-56
2023/12/21 08:25:42;;;;;;;2.72;0.88;;;6.10;99.90;;;;;;5012945;28;20129;-51
2023/12/21 08:28:09;;;;;;;1.20;0.70;;;6.10;99.90;;;;;;5007110;28;20359;-49
2023/12/21 08:30:38;;;;;;;0.82;0.63;;;6.10;99.90;;;;;;5009870;28;20041;-49
2023/12/21 08:33:06;;;;;;;0.70;0.70;;;6.10;99.90;;;;;;5007006;28;20121;-57
2023/12/21 08:35:33;;;;;;;1.42;0.80;;;6.10;99.90;;;;;;5017385;28;20045;-53
2023/12/21 08:38:00;;;;;;;1.08;0.70;;;6.20;99.90;;;;;;5016330;28;20041;-50
2023/12/21 08:40:28;;;;;;;1.42;0.70;;;6.20;99.90;;;;;;5016457;28;20065;-51
2023/12/21 08:42:55;;;;;;;2.63;0.90;;;6.20;99.90;;;;;;5019683;28;20080;-55
2023/12/21 08:45:22;;;;;;;0.73;0.65;;;6.30;99.90;;;;;;5013036;28;20046;-52
2023/12/21 08:47:49;;;;;;;1.65;0.90;;;6.30;99.90;;;;;;5010835;28;20060;-57
2023/12/21 08:50:18;;;;;;;0.70;0.60;;;6.30;99.90;;;;;;5012715;28;20030;-55
2023/12/21 08:52:45;;;;;;;2.67;1.00;;;6.20;99.90;;;;;;5010421;28;20065;-55
2023/12/21 08:55:13;;;;;;;1.15;0.90;;;6.30;99.90;;;;;;5007931;28;20045;-51
2023/12/21 08:57:40;;;;;;;1.05;0.70;;;6.30;99.90;;;;;;5016690;28;20046;-58
2023/12/21 09:00:12;;;;;;;1.67;0.98;;;6.40;99.90;;;;;;5009603;28;20053;-48
2023/12/21 09:02:40;;;;;;;1.48;0.90;;;6.40;99.90;;;;;;5020670;28;20073;-51
2023/12/21 09:05:08;;;;;;;1.77;0.90;;;6.30;99.90;;;;;;5010548;28;20048;-56
2023/12/21 09:07:35;;;;;;;1.42;0.80;;;6.40;99.90;;;;;;5016658;28;20132;-53
2023/12/21 09:10:03;;;;;;;1.85;0.70;;;6.40;99.90;;;;;;5010814;28;20375;-51
2023/12/21 09:12:31;;;;;;;3.63;1.10;;;6.40;99.90;;;;;;5003618;28;20438;-52
2023/12/21 09:14:58;;;;;;;1.70;1.00;;;6.50;99.90;;;;;;5005069;28;20041;-48
2023/12/21 09:17:25;;;;;;;1.42;0.85;;;6.50;99.90;;;;;;5004334;28;20077;-52
2023/12/21 09:19:52;;;;;;;1.75;0.95;;;6.50;99.90;;;;;;5012717;28;20060;-53
2023/12/21 09:22:21;;;;;;;0.98;0.70;;;6.50;99.90;;;;;;5013744;28;20073;-47
2023/12/21 09:24:48;;;;;;;1.40;0.70;;;6.50;99.90;;;;;;5009263;28;20424;-53
2023/12/21 09:27:15;;;;;;;2.17;1.10;;;6.50;99.90;;;;;;5011596;28;20042;-50
2023/12/21 09:29:42;;;;;;;1.45;0.90;;;6.50;99.90;;;;;;5012681;28;20037;-54
2023/12/21 09:32:10;;;;;;;0.85;0.70;;;6.50;99.90;;;;;;5010879;28;20316;-47
2023/12/21 09:34:38;;;;;;;1.88;0.80;;;6.50;99.90;;;;;;5014069;28;20128;-45
2023/12/21 09:37:06;;;;;;;1.17;0.80;;;6.50;99.90;;;;;;5011193;28;20057;-52
2023/12/21 09:39:33;;;;;;;1.95;0.90;;;6.50;99.90;;;;;;5011438;28;20111;-50
2023/12/21 09:42:01;;;;;;;2.95;0.77;;;6.50;99.90;;;;;;5015493;28;20414;-54
2023/12/21 09:44:31;;;;;;;1.75;0.80;;;6.60;99.90;;;;;;4996379;28;20458;-51
2023/12/21 09:47:00;;;;;;;1.67;1.13;;;6.60;99.90;;;;;;4997956;28;20430;-48
2023/12/21 09:49:30;;;;;;;0.88;0.70;;;6.60;99.90;;;;;;5016638;28;20038;-55
2023/12/21 09:51:58;;;;;;;1.05;0.70;;;6.70;99.90;;;;;;4995395;28;20443;-47
2023/12/21 09:54:26;;;;;;;1.17;0.63;;;6.70;99.90;;;;;;5008801;28;20111;-52
2023/12/21 09:56:53;;;;;;;1.05;0.60;;;6.70;99.90;;;;;;5012924;28;20067;-47
2023/12/21 09:59:21;;;;;;;0.98;0.80;;;6.70;99.90;;;;;;5012294;28;20380;-48
2023/12/21 10:01:50;;;;;;;0.93;0.70;;;6.80;99.90;;;;;;5014851;28;20041;-49
2023/12/21 10:04:19;;;;;;;0.65;0.55;;;6.80;99.90;;;;;;5007880;28;20502;-52
2023/12/21 10:06:46;;;;;;;1.20;0.60;;;6.80;99.90;;;;;;5012833;28;20047;-50
2023/12/21 10:09:15;;;;;;;1.08;0.70;;;6.80;99.90;;;;;;5013907;28;20038;-49
2023/12/21 10:11:43;;;;;;;1.55;0.80;;;6.80;99.90;;;;;;5005308;28;20148;-47
2023/12/21 10:14:19;;;;;;;0.60;0.60;;;6.80;99.90;;;;;;5010233;28;20066;-46
2023/12/21 10:16:46;;;;;;;2.33;0.70;;;6.80;99.90;;;;;;5008535;28;20061;-54
2023/12/21 10:19:16;;;;;;;0.73;0.60;;;6.80;99.90;;;;;;5013749;28;20511;-49
2023/12/21 10:21:45;;;;;;;2.13;0.60;;;6.90;99.90;;;;;;5009668;28;20065;-49
2023/12/21 10:24:12;;;;;;;1.40;0.70;;;6.90;99.90;;;;;;5010785;28;20208;-50
2023/12/21 10:26:43;;;;;;;0.82;0.63;;;6.90;99.90;;;;;;5013548;28;20128;-49
2023/12/21 10:29:15;;;;;;;0.68;0.50;;;6.90;99.90;;;;;;5009699;28;20202;-48
2023/12/21 10:31:47;;;;;;;1.35;0.65;;;6.90;99.90;;;;;;5011758;28;20421;-48
2023/12/21 10:34:15;;;;;;;1.75;0.70;;;6.90;99.90;;;;;;5008408;28;20283;-49
2023/12/21 10:36:44;;;;;;;0.65;0.60;;;6.90;99.90;;;;;;5016197;28;20469;-46
2023/12/21 10:39:12;;;;;;;4.25;0.75;;;6.90;99.90;;;;;;5007755;28;20544;-53
2023/12/21 10:41:43;;;;;;;3.38;1.17;;;7.00;99.90;;;;;;5012151;28;20056;-51
2023/12/21 10:44:15;;;;;;;2.00;0.82;;;7.00;99.90;;;;;;5011599;28;20080;-52
2023/12/21 10:46:43;;;;;;;1.23;0.70;;;7.00;99.90;;;;;;5020801;28;20038;-52
2023/12/21 10:49:11;;;;;;;1.00;0.77;;;7.00;99.90;;;;;;5010146;28;20487;-54
2023/12/21 10:51:40;;;;;;;2.83;1.40;;;7.00;99.90;;;;;;5008969;28;20494;-48
2023/12/21 10:54:08;;;;;;;1.08;0.65;;;7.00;99.90;;;;;;4990312;28;20038;-52
2023/12/21 10:56:41;;;;;;;3.67;0.80;;;7.10;99.90;;;;;;5016695;28;20071;-55
2023/12/21 10:59:12;;;;;;;1.65;0.88;;;7.20;99.90;;;;;;5011559;28;20050;-51
2023/12/21 11:01:40;;;;;;;1.30;0.70;;;7.10;99.90;;;;;;5013883;28;20041;-53
2023/12/21 11:04:10;;;;;;;1.05;0.70;;;7.10;99.90;;;;;;5012185;28;20380;-52
2023/12/21 11:06:39;;;;;;;1.95;0.90;;;7.20;99.90;;;;;;5007254;28;20112;-52
2023/12/21 11:09:06;;;;;;;0.98;0.70;;;7.20;99.90;;;;;;5013077;28;20356;-47
2023/12/21 11:11:34;;;;;;;1.20;0.60;;;7.20;99.90;;;;;;5010146;28;20137;-54
2023/12/21 11:14:01;;;;;;;1.33;0.73;;;7.30;99.90;;;;;;5010644;28;20050;-51
2023/12/21 11:16:43;;;;;;;1.17;0.60;;;7.30;99.90;;;;;;5013058;28;20053;-52
2023/12/21 11:19:13;;;;;;;1.58;0.60;;;7.30;99.90;;;;;;5006933;28;20092;-52
2023/12/21 11:21:42;;;;;;;1.63;0.80;;;7.30;99.90;;;;;;5005639;28;20161;-49
2023/12/21 11:24:20;;;;;;;1.85;0.60;;;7.30;99.90;;;;;;5008360;28;20060;-52
2023/12/21 11:26:49;;;;;;;1.88;0.75;;;7.30;99.90;;;;;;5009019;28;20471;-50
2023/12/21 11:29:26;;;;;;;1.17;0.70;;;7.40;99.90;;;;;;5009191;28;20117;-54
2023/12/21 11:31:55;;;;;;;1.25;0.60;;;7.50;99.90;;;;;;5013090;28;20048;-51
2023/12/21 11:34:34;;;;;;;0.77;0.70;;;7.50;99.90;;;;;;5011973;28;20422;-54
2023/12/21 11:37:22;;;;;;;1.67;0.70;;;7.50;99.90;;;;;;5010156;28;20514;-50
2023/12/21 11:39:57;;;;;;;2.80;0.90;;;7.60;99.90;;;;;;5008941;28;20042;-48
2023/12/21 11:42:35;;;;;;;2.40;1.10;;;7.60;99.90;;;;;;5013802;28;20088;-54
2023/12/21 11:45:09;;;;;;;1.33;0.70;;;7.70;99.90;;;;;;5012186;28;20137;-51
2023/12/21 11:47:36;;;;;;;1.08;0.70;;;7.70;99.90;;;;;;5012490;28;20034;-49
2023/12/21 11:50:08;;;;;;;1.40;0.73;;;7.70;99.90;;;;;;5011546;28;20045;-51
2023/12/21 11:52:36;;;;;;;;;;;7.80;99.90;;;;;;5012746;28;20041;-47
2023/12/21 11:55:04;;;;;;;0.60;0.50;;;7.90;99.90;;;;;;5008057;28;20279;-56
2023/12/21 11:57:32;;;;;;;2.80;1.02;;;8.00;99.90;;;;;;5014311;28;20117;-51
2023/12/21 12:00:16;;;;;;;1.20;0.70;;;8.00;99.90;;;;;;5010503;28;20464;-53
2023/12/21 12:02:48;;;;;;;1.77;0.60;;;8.00;99.90;;;;;;5011286;28;20475;-53
2023/12/21 12:05:22;;;;;;;0.68;0.60;;;8.00;99.90;;;;;;5007239;28;20042;-48
2023/12/21 12:07:50;;;;;;;1.38;0.80;;;8.00;99.90;;;;;;5007779;28;20132;-47
2023/12/21 12:10:18;;;;;;;2.10;0.65;;;8.00;99.90;;;;;;5009166;28;20113;-51
2023/12/21 12:12:45;;;;;;;1.17;0.70;;;8.00;99.90;;;;;;5006279;28;20056;-52
2023/12/21 12:15:13;;;;;;;1.38;0.80;;;8.00;99.90;;;;;;5009534;28;20304;-50
2023/12/21 12:17:41;;;;;;;1.83;0.80;;;7.90;99.90;;;;;;5011675;28;20044;-52
2023/12/21 12:20:12;;;;;;;1.23;0.68;;;7.80;99.90;;;;;;5010399;28;20065;-54
2023/12/21 12:22:40;;;;;;;1.55;0.70;;;7.80;99.90;;;;;;5009208;28;20103;-51
2023/12/21 12:25:07;;;;;;;0.85;0.70;;;7.70;99.90;;;;;;5005182;28;20045;-47
2023/12/21 12:27:35;;;;;;;0.98;0.57;;;7.60;99.90;;;;;;5010599;28;20041;-53
2023/12/21 12:30:03;;;;;;;1.73;0.60;;;7.60;99.90;;;;;;5007065;28;20034;-53
2023/12/21 12:32:31;;;;;;;1.30;0.70;;;7.50;99.90;;;;;;5004015;28;20044;-50
2023/12/21 12:34:58;;;;;;;2.17;0.70;;;7.50;99.90;;;;;;5010801;28;20058;-54
2023/12/21 12:37:25;;;;;;;0.63;0.63;;;7.40;99.90;;;;;;5005988;28;20042;-48
2023/12/21 12:39:53;;;;;;;1.95;0.63;;;7.40;99.90;;;;;;5005094;28;20507;-50
2023/12/21 12:42:20;;;;;;;1.55;0.73;;;7.40;99.90;;;;;;5008097;28;20052;-49
2023/12/21 12:44:51;;;;;;;1.15;0.77;;;7.30;99.90;;;;;;5010170;28;20451;-48
2023/12/21 12:47:20;;;;;;;2.67;0.77;;;7.20;99.90;;;;;;5011607;28;20567;-46
2023/12/21 12:49:47;;;;;;;1.27;0.70;;;7.20;99.90;;;;;;5015821;28;20449;-49
2023/12/21 12:52:19;;;;;;;1.77;0.90;;;7.20;99.90;;;;;;5007865;28;20418;-49
2023/12/21 12:54:46;;;;;;;;;;;7.20;99.90;;;;;;5012134;28;20048;-47
2023/12/21 12:57:13;;;;;;;1.65;0.90;;;7.20;99.90;;;;;;5012018;28;19955;-50
2023/12/21 12:59:40;;;;;;;2.75;0.90;;;7.20;99.90;;;;;;5008289;28;20128;-45
2023/12/21 13:02:08;;;;;;;1.50;0.90;;;7.30;99.90;;;;;;5017006;28;20049;-50